Time;durP1;ratioP1;P1;durP2;ratioP2;P2;SDS_P1;SDS_P2;PMS_P1;PMS_P2;Temp;Humidity;BMP_temperature;BMP_pressure;BME280_temperature;BME280_humidity;BME280_pressure;Samples;Min_cycle;Max_cycle;Signal;HPM_P1;HPM_P2
2024/02/20 00:01:11;;;;;;;40.47;6.88;;;9.00;90.00;;;;;;9179535;19;20025;-69
2024/02/20 00:04:20;;;;;;;40.67;4.25;;;9.00;90.10;;;;;;9179918;19;20018;-69
2024/02/20 00:07:28;;;;;;;45.88;5.63;;;9.00;90.20;;;;;;9178358;19;20102;-69
2024/02/20 00:10:36;;;;;;;49.67;6.45;;;9.00;90.40;;;;;;9179404;19;20818;-69
2024/02/20 00:13:42;;;;;;;43.63;5.85;;;9.00;90.30;;;;;;9180072;19;20089;-70
2024/02/20 00:16:49;;;;;;;42.60;5.53;;;9.00;90.40;;;;;;9180651;19;20018;-69
2024/02/20 00:19:55;;;;;;;42.10;7.45;;;9.00;90.10;;;;;;9178883;19;20018;-70
2024/02/20 00:23:05;;;;;;;38.20;5.15;;;9.00;90.20;;;;;;9178712;19;20025;-69
2024/02/20 00:26:11;;;;;;;50.97;6.82;;;9.00;90.10;;;;;;9174629;19;20044;-71
2024/02/20 00:29:19;;;;;;;53.00;6.40;;;8.90;90.10;;;;;;9176473;19;20022;-71
2024/02/20 00:32:24;;;;;;;39.35;5.40;;;8.90;90.20;;;;;;9179502;19;20014;-70
2024/02/20 00:35:33;;;;;;;52.60;6.70;;;8.90;90.10;;;;;;9176906;19;20022;-70
2024/02/20 00:38:41;;;;;;;51.80;6.40;;;9.00;90.20;;;;;;9179383;19;20487;-70
2024/02/20 00:41:49;;;;;;;50.67;7.38;;;9.00;90.20;;;;;;9179699;19;20022;-74
2024/02/20 00:44:54;;;;;;;54.22;7.53;;;8.90;90.20;;;;;;9176664;19;20014;-69
2024/02/20 00:48:02;;;;;;;48.15;5.93;;;8.90;90.30;;;;;;9178610;19;20019;-69
2024/02/20 00:51:07;;;;;;;50.05;5.13;;;9.00;90.20;;;;;;9173397;19;20022;-69
2024/02/20 00:54:17;;;;;;;45.10;5.72;;;8.90;90.10;;;;;;9175913;19;20022;-69
2024/02/20 00:57:23;;;;;;;45.47;7.15;;;8.90;90.30;;;;;;9177983;19;20014;-69
2024/02/20 01:00:31;;;;;;;53.55;6.90;;;8.90;90.30;;;;;;9176636;19;20018;-69
2024/02/20 01:03:36;;;;;;;47.88;5.90;;;9.00;90.30;;;;;;9175604;19;20018;-69
2024/02/20 01:06:44;;;;;;;39.97;6.15;;;8.90;90.20;;;;;;9176947;19;20500;-69
2024/02/20 01:10:03;;;;;;;37.10;6.70;;;8.90;90.20;;;;;;9176152;19;20459;-69
2024/02/20 01:13:11;;;;;;;46.15;5.28;;;8.90;90.20;;;;;;9176394;19;20086;-69
2024/02/20 01:16:18;;;;;;;40.78;5.82;;;8.90;90.20;;;;;;9176826;19;20018;-69
2024/02/20 01:19:26;;;;;;;37.03;5.18;;;8.90;90.20;;;;;;9177148;19;20036;-69
2024/02/20 01:22:39;;;;;;;39.22;5.10;;;8.90;90.20;;;;;;9175940;19;20017;-69
2024/02/20 01:25:49;;;;;;;38.33;5.18;;;8.90;90.10;;;;;;9170977;19;20025;-70
2024/02/20 01:28:54;;;;;;;49.97;4.95;;;8.80;90.20;;;;;;9176042;19;20010;-71
2024/02/20 01:32:02;;;;;;;43.75;5.68;;;8.90;90.30;;;;;;9175479;19;20024;-69
2024/02/20 01:35:09;;;;;;;45.05;5.43;;;8.80;90.10;;;;;;9173386;19;20114;-69
2024/02/20 01:38:16;;;;;;;39.53;5.85;;;8.80;90.20;;;;;;9175818;19;20707;-70
2024/02/20 01:41:25;;;;;;;50.50;6.57;;;8.80;90.30;;;;;;9175440;19;20022;-69
2024/02/20 01:44:34;;;;;;;44.88;5.07;;;8.70;90.20;;;;;;9172084;19;20010;-68
2024/02/20 01:47:40;;;;;;;33.45;4.95;;;8.80;90.20;;;;;;9172177;19;20068;-69
2024/02/20 01:50:47;;;;;;;33.13;5.13;;;8.70;90.10;;;;;;9174614;19;20018;-70
2024/02/20 01:53:55;;;;;;;44.72;7.10;;;8.70;90.10;;;;;;9174163;19;20014;-69
2024/02/20 01:57:06;;;;;;;41.83;6.85;;;8.70;90.10;;;;;;9173567;19;20022;-69
2024/02/20 02:00:12;;;;;;;44.03;5.43;;;8.60;90.00;;;;;;9173163;19;20019;-69
2024/02/20 02:03:20;;;;;;;38.13;5.45;;;8.60;90.30;;;;;;9173089;19;20025;-70
2024/02/20 02:06:30;;;;;;;39.63;5.05;;;8.60;90.10;;;;;;9173153;19;20011;-69
2024/02/20 02:09:38;;;;;;;34.40;4.47;;;8.50;90.00;;;;;;9175087;19;20025;-69
2024/02/20 02:12:46;;;;;;;33.03;4.57;;;8.50;90.00;;;;;;9173797;19;20040;-69
2024/02/20 02:15:54;;;;;;;29.60;4.07;;;8.50;90.10;;;;;;9172218;19;20584;-71
2024/02/20 02:19:16;;;;;;;45.63;5.10;;;8.50;90.20;;;;;;9175307;19;20025;-70
2024/02/20 02:22:24;;;;;;;46.67;5.65;;;8.50;90.20;;;;;;9173570;19;20022;-70
2024/02/20 02:25:29;;;;;;;22.88;4.45;;;8.50;90.10;;;;;;9168420;19;20473;-70
2024/02/20 02:28:40;;;;;;;30.40;5.20;;;8.50;90.10;;;;;;9173832;19;20030;-70
2024/02/20 02:31:45;;;;;;;34.75;4.40;;;8.50;90.10;;;;;;9173723;19;20070;-70
2024/02/20 02:34:53;;;;;;;30.92;4.38;;;8.40;90.20;;;;;;9170572;19;20007;-69
2024/02/20 02:38:00;;;;;;;45.38;5.10;;;8.50;90.00;;;;;;9173230;19;20010;-69
2024/02/20 02:41:08;;;;;;;44.33;5.20;;;8.40;90.10;;;;;;9172967;19;20048;-70
2024/02/20 02:44:16;;;;;;;39.58;5.90;;;8.40;90.00;;;;;;9171582;19;20494;-70
2024/02/20 02:47:23;;;;;;;40.38;4.20;;;8.30;90.00;;;;;;9172918;19;20074;-70
2024/02/20 02:50:29;;;;;;;40.53;5.05;;;8.30;90.10;;;;;;9172417;19;20086;-70
2024/02/20 02:53:39;;;;;;;36.67;5.75;;;8.40;90.30;;;;;;9172340;19;20019;-70
2024/02/20 02:56:45;;;;;;;36.17;5.30;;;8.30;90.10;;;;;;9172279;19;20018;-70
2024/02/20 02:59:55;;;;;;;39.90;4.78;;;8.30;90.10;;;;;;9172540;19;20010;-70
2024/02/20 03:03:01;;;;;;;32.65;4.88;;;8.20;90.00;;;;;;9173600;19;20017;-70
2024/02/20 03:06:11;;;;;;;34.10;5.45;;;8.30;90.40;;;;;;9171549;19;20022;-70
2024/02/20 03:09:18;;;;;;;42.78;6.13;;;8.30;90.40;;;;;;9169899;19;20648;-70
2024/02/20 03:12:25;;;;;;;35.95;5.25;;;8.20;90.00;;;;;;9179998;19;20022;-70
2024/02/20 03:15:34;;;;;;;33.88;4.47;;;8.20;89.80;;;;;;9178599;19;20025;-70
2024/02/20 03:18:42;;;;;;;33.08;4.10;;;8.20;90.10;;;;;;9181117;19;20014;-70
2024/02/20 03:21:48;;;;;;;37.30;4.55;;;8.20;90.10;;;;;;9178925;19;20021;-70
2024/02/20 03:24:56;;;;;;;33.85;4.97;;;8.20;90.20;;;;;;9180082;19;20011;-70
2024/02/20 03:28:02;;;;;;;41.20;5.35;;;8.20;90.10;;;;;;9179526;19;20014;-70
2024/02/20 03:31:13;;;;;;;40.55;5.15;;;8.20;90.20;;;;;;9179943;19;20033;-70
2024/02/20 03:34:19;;;;;;;26.92;4.72;;;8.20;90.10;;;;;;9179834;19;20011;-70
2024/02/20 03:37:26;;;;;;;33.83;4.13;;;8.20;90.10;;;;;;9179090;19;20028;-70
2024/02/20 03:40:32;;;;;;;33.85;4.97;;;8.10;90.10;;;;;;9176361;19;20023;-70
2024/02/20 03:43:40;;;;;;;42.03;4.53;;;8.20;90.10;;;;;;9179822;19;20377;-70
2024/02/20 03:46:48;;;;;;;31.50;4.18;;;8.10;90.00;;;;;;9180139;19;20480;-69
2024/02/20 03:49:56;;;;;;;22.42;3.33;;;8.10;90.10;;;;;;9179838;19;20010;-69
2024/02/20 03:53:02;;;;;;;33.50;4.53;;;8.10;90.10;;;;;;9178463;19;20011;-69
2024/02/20 03:56:14;;;;;;;35.05;5.03;;;8.10;90.10;;;;;;9177524;19;20021;-71
2024/02/20 03:59:20;;;;;;;35.35;5.85;;;8.00;90.00;;;;;;9180616;19;20014;-71
2024/02/20 04:02:30;;;;;;;26.13;4.50;;;8.00;90.00;;;;;;9179968;19;20019;-69
2024/02/20 04:05:37;;;;;;;33.45;5.57;;;8.00;90.20;;;;;;9179325;19;20014;-69
2024/02/20 04:08:44;;;;;;;30.88;4.35;;;8.00;90.00;;;;;;9177171;19;20396;-69
2024/02/20 04:11:50;;;;;;;22.60;3.88;;;7.90;90.00;;;;;;9179402;19;20018;-70
2024/02/20 04:14:57;;;;;;;47.92;5.97;;;7.90;90.10;;;;;;9178450;19;20030;-69
2024/02/20 04:18:06;;;;;;;41.88;6.05;;;8.00;90.30;;;;;;9178680;19;20018;-69
2024/02/20 04:21:13;;;;;;;34.17;4.78;;;7.90;90.00;;;;;;9177374;19;20015;-70
2024/02/20 04:24:19;;;;;;;30.58;3.65;;;7.90;90.00;;;;;;9178997;19;20108;-69
2024/02/20 04:27:27;;;;;;;35.25;5.55;;;7.90;90.00;;;;;;9173404;19;20093;-69
2024/02/20 04:30:34;;;;;;;40.85;5.55;;;7.80;90.00;;;;;;9178283;19;20006;-69
2024/02/20 04:33:44;;;;;;;23.27;3.15;;;7.90;90.10;;;;;;9178719;19;20026;-69
2024/02/20 04:36:50;;;;;;;26.83;4.70;;;7.90;90.10;;;;;;9175455;19;20019;-68
2024/02/20 04:39:57;;;;;;;21.48;3.70;;;7.80;90.20;;;;;;9176268;19;20022;-69
2024/02/20 04:43:03;;;;;;;34.35;4.32;;;7.80;90.10;;;;;;9177029;19;20026;-70
2024/02/20 04:46:10;;;;;;;33.70;4.78;;;7.80;90.10;;;;;;9177228;19;20021;-69
2024/02/20 04:49:19;;;;;;;26.63;4.03;;;7.80;90.00;;;;;;9176415;19;20013;-70
2024/02/20 04:52:26;;;;;;;35.38;5.57;;;7.80;90.10;;;;;;9176338;19;20019;-70
2024/02/20 04:55:32;;;;;;;32.50;4.07;;;7.70;90.10;;;;;;9176402;19;20017;-70
2024/02/20 04:58:40;;;;;;;20.67;3.88;;;7.80;90.20;;;;;;9177397;19;20022;-73
2024/02/20 05:01:46;;;;;;;27.83;3.97;;;7.70;90.20;;;;;;9178001;19;20010;-71
2024/02/20 05:04:56;;;;;;;24.48;3.95;;;7.70;90.10;;;;;;9178415;19;20480;-69
2024/02/20 05:08:02;;;;;;;38.38;4.68;;;7.70;90.30;;;;;;9177810;19;20014;-69
2024/02/20 05:11:09;;;;;;;24.63;6.00;;;7.70;90.20;;;;;;9178204;19;20018;-70
2024/02/20 05:14:15;;;;;;;29.95;4.32;;;7.70;90.00;;;;;;9177159;19;20010;-70
2024/02/20 05:17:22;;;;;;;23.45;4.00;;;7.70;90.10;;;;;;9174886;19;20551;-70
2024/02/20 05:20:30;;;;;;;31.52;4.57;;;7.70;90.20;;;;;;9175584;19;20050;-70
2024/02/20 05:23:38;;;;;;;20.27;4.18;;;7.60;90.10;;;;;;9176651;19;20022;-70
2024/02/20 05:26:44;;;;;;;46.80;5.25;;;7.60;90.10;;;;;;9172214;19;20137;-70
2024/02/20 05:29:51;;;;;;;27.08;3.60;;;7.50;90.00;;;;;;9175073;19;20081;-70
2024/02/20 05:32:57;;;;;;;34.33;4.07;;;7.60;90.10;;;;;;9172157;19;20014;-70
2024/02/20 05:36:07;;;;;;;25.98;4.18;;;7.60;90.00;;;;;;9174661;19;20018;-70
2024/02/20 05:39:13;;;;;;;35.42;4.47;;;7.50;90.10;;;;;;9175536;19;20011;-70
2024/02/20 05:42:20;;;;;;;31.58;5.25;;;7.50;90.10;;;;;;9175069;19;20019;-70
2024/02/20 05:45:26;;;;;;;20.58;5.30;;;7.50;90.00;;;;;;9175139;19;20078;-70
2024/02/20 05:48:33;;;;;;;39.90;5.10;;;7.50;90.20;;;;;;9173786;19;20369;-70
2024/02/20 05:51:42;;;;;;;31.45;5.82;;;7.50;90.10;;;;;;9174964;19;20018;-69
2024/02/20 05:54:52;;;;;;;49.27;6.23;;;7.50;90.10;;;;;;9174780;19;20362;-69
2024/02/20 05:57:59;;;;;;;30.83;4.40;;;7.40;90.10;;;;;;9172478;19;20007;-70
2024/02/20 06:01:08;;;;;;;26.92;4.22;;;7.40;90.10;;;;;;9174376;19;20011;-70
2024/02/20 06:04:14;;;;;;;37.22;4.82;;;7.40;90.10;;;;;;9173132;19;20010;-71
2024/02/20 06:07:25;;;;;;;32.85;6.03;;;7.40;90.10;;;;;;9173553;19;20361;-69
2024/02/20 06:10:31;;;;;;;33.13;5.25;;;7.50;90.40;;;;;;9174776;19;20488;-70
2024/02/20 06:13:39;;;;;;;32.50;5.72;;;7.40;90.20;;;;;;9172297;19;20577;-69
2024/02/20 06:16:44;;;;;;;22.30;4.72;;;7.40;90.30;;;;;;9174150;19;20094;-70
2024/02/20 06:19:52;;;;;;;42.20;5.38;;;7.50;90.30;;;;;;9175068;19;20018;-70
2024/02/20 06:23:00;;;;;;;30.13;5.05;;;7.40;90.20;;;;;;9174187;19;20488;-69
2024/02/20 06:26:08;;;;;;;33.03;6.10;;;7.40;90.10;;;;;;9169502;19;20125;-71
2024/02/20 06:29:19;;;;;;;35.30;5.05;;;7.40;90.10;;;;;;9171663;19;20487;-71
2024/02/20 06:32:26;;;;;;;29.42;5.72;;;7.40;90.30;;;;;;9171994;19;20023;-70
2024/02/20 06:35:34;;;;;;;34.50;6.72;;;7.30;90.10;;;;;;9171617;19;20082;-71
2024/02/20 06:38:47;;;;;;;35.20;5.80;;;7.30;90.10;;;;;;9171037;19;20015;-70
2024/02/20 06:41:53;;;;;;;30.98;4.82;;;7.30;90.20;;;;;;9173182;19;20023;-71
2024/02/20 06:45:00;;;;;;;25.50;4.57;;;7.40;90.20;;;;;;9175402;19;20015;-69
2024/02/20 06:48:07;;;;;;;28.17;5.65;;;7.40;90.30;;;;;;9182859;19;20044;-69
2024/02/20 06:51:15;;;;;;;36.83;6.28;;;7.40;90.30;;;;;;9182886;19;20014;-70
2024/02/20 06:54:23;;;;;;;32.33;5.53;;;7.40;90.30;;;;;;9181378;19;20010;-70
2024/02/20 06:57:30;;;;;;;33.97;5.82;;;7.30;90.30;;;;;;9180744;19;20480;-70
2024/02/20 07:00:37;;;;;;;30.13;5.55;;;7.40;90.20;;;;;;9181977;19;20014;-71
2024/02/20 07:03:48;;;;;;;29.25;5.38;;;7.40;90.20;;;;;;9181874;19;20038;-70
2024/02/20 07:06:54;;;;;;;22.27;4.50;;;7.40;90.10;;;;;;9178838;19;20697;-71
2024/02/20 07:10:06;;;;;;;34.45;4.93;;;7.40;90.20;;;;;;9176389;19;20014;-70
2024/02/20 07:13:11;;;;;;;30.95;5.75;;;7.40;90.20;;;;;;9179525;19;20048;-70
2024/02/20 07:16:19;;;;;;;30.80;5.32;;;7.30;90.20;;;;;;9179120;19;20026;-71
2024/02/20 07:19:25;;;;;;;35.72;5.00;;;7.30;90.20;;;;;;9176923;19;20015;-69
2024/02/20 07:22:33;;;;;;;35.72;5.63;;;7.30;90.40;;;;;;9180613;19;20014;-71
2024/02/20 07:25:41;;;;;;;37.38;5.13;;;7.30;90.20;;;;;;9170602;19;20662;-69
2024/02/20 07:28:49;;;;;;;31.23;5.22;;;7.40;90.20;;;;;;9179994;19;20034;-68
2024/02/20 07:31:55;;;;;;;46.17;7.28;;;7.30;90.20;;;;;;9179927;19;20047;-69
2024/02/20 07:35:03;;;;;;;39.65;5.45;;;7.40;90.30;;;;;;9178079;19;20021;-69
2024/02/20 07:38:08;;;;;;;30.48;4.25;;;7.40;90.50;;;;;;9177133;19;20021;-71
2024/02/20 07:41:19;;;;;;;28.70;5.03;;;7.40;90.40;;;;;;9179766;19;20026;-70
2024/02/20 07:44:24;;;;;;;30.27;4.75;;;7.30;90.60;;;;;;9180232;19;20068;-70
2024/02/20 07:47:32;;;;;;;38.65;5.55;;;7.40;90.50;;;;;;9179813;19;20014;-71
2024/02/20 07:50:37;;;;;;;46.42;7.15;;;7.40;90.50;;;;;;9179799;19;20013;-69
2024/02/20 07:53:45;;;;;;;34.65;4.88;;;7.40;90.50;;;;;;9176155;19;20457;-70
2024/02/20 07:56:57;;;;;;;49.33;5.20;;;7.40;90.50;;;;;;9175205;19;20010;-69
2024/02/20 08:00:06;;;;;;;31.52;5.28;;;7.60;90.60;;;;;;9177964;19;20503;-71
2024/02/20 08:03:23;;;;;;;36.42;5.35;;;7.50;90.50;;;;;;9176674;19;20010;-70
2024/02/20 08:06:31;;;;;;;28.57;4.60;;;7.50;90.60;;;;;;9179220;19;20021;-70
2024/02/20 08:09:36;;;;;;;47.33;5.50;;;7.50;90.50;;;;;;9178962;19;20014;-71
2024/02/20 08:12:46;;;;;;;26.40;4.65;;;7.60;90.70;;;;;;9179372;19;20027;-70
2024/02/20 08:15:52;;;;;;;29.70;4.82;;;7.60;90.60;;;;;;9179154;19;20479;-71
2024/02/20 08:19:00;;;;;;;32.63;6.72;;;7.80;90.80;;;;;;9176672;19;20023;-69
2024/02/20 08:22:06;;;;;;;34.30;4.95;;;7.70;90.70;;;;;;9176770;19;20085;-70
2024/02/20 08:25:14;;;;;;;37.78;5.57;;;7.70;90.80;;;;;;9174615;19;20014;-71
2024/02/20 08:28:22;;;;;;;31.00;5.15;;;7.80;90.90;;;;;;9178748;19;20014;-70
2024/02/20 08:31:32;;;;;;;31.27;6.20;;;7.80;90.60;;;;;;9178859;19;20034;-70
2024/02/20 08:34:38;;;;;;;33.47;5.78;;;7.90;90.80;;;;;;9176075;19;20010;-70
2024/02/20 08:37:46;;;;;;;33.60;5.85;;;7.90;90.70;;;;;;9176438;19;20021;-71
2024/02/20 08:40:51;;;;;;;47.42;5.00;;;7.90;90.90;;;;;;9176919;19;20011;-70
2024/02/20 08:44:02;;;;;;;26.25;6.20;;;8.00;90.80;;;;;;9177134;19;20019;-71
2024/02/20 08:47:07;;;;;;;36.60;5.13;;;8.00;90.80;;;;;;9176894;19;20014;-71
2024/02/20 08:50:16;;;;;;;39.83;5.75;;;8.10;90.70;;;;;;9177235;19;20017;-70
2024/02/20 08:53:22;;;;;;;42.58;6.57;;;8.10;90.70;;;;;;9178194;19;20015;-71
2024/02/20 08:56:30;;;;;;;47.78;6.60;;;8.20;90.80;;;;;;9177285;19;20025;-70
2024/02/20 08:59:38;;;;;;;39.95;6.30;;;8.20;90.90;;;;;;9172803;19;20014;-70
2024/02/20 09:02:46;;;;;;;37.42;5.43;;;8.20;90.90;;;;;;9176894;19;20030;-71
2024/02/20 09:05:51;;;;;;;46.65;8.10;;;8.30;90.80;;;;;;9174152;19;20011;-71
2024/02/20 09:08:59;;;;;;;37.33;5.80;;;8.40;90.90;;;;;;9172806;19;20022;-73
2024/02/20 09:12:08;;;;;;;46.72;7.72;;;8.30;90.80;;;;;;9173800;19;20018;-74
2024/02/20 09:15:19;;;;;;;38.17;6.55;;;8.10;90.70;;;;;;9174723;19;20491;-74
2024/02/20 09:18:24;;;;;;;48.10;6.43;;;8.40;90.90;;;;;;9172505;19;20022;-74
2024/02/20 09:21:32;;;;;;;42.35;7.82;;;8.60;90.90;;;;;;9174737;19;20025;-74
2024/02/20 09:24:38;;;;;;;41.63;6.03;;;8.70;90.90;;;;;;9173654;19;20010;-73
2024/02/20 09:27:46;;;;;;;42.33;7.65;;;8.90;91.00;;;;;;9171221;19;20360;-73
2024/02/20 09:30:54;;;;;;;55.58;8.52;;;8.70;91.00;;;;;;9173667;19;20015;-73
2024/02/20 09:34:03;;;;;;;34.22;7.70;;;8.70;90.90;;;;;;9173304;19;20014;-74
2024/02/20 09:37:12;;;;;;;30.70;7.88;;;8.80;91.00;;;;;;9173208;19;20464;-73
2024/02/20 09:40:22;;;;;;;40.42;7.30;;;8.90;91.10;;;;;;9171436;19;20006;-73
2024/02/20 09:43:28;;;;;;;39.63;6.10;;;8.90;91.10;;;;;;9172517;19;20027;-74
2024/02/20 09:46:43;;;;;;;37.97;8.00;;;9.00;91.00;;;;;;9173601;19;20457;-73
2024/02/20 09:49:53;;;;;;;37.58;6.80;;;9.10;91.00;;;;;;9173096;19;20441;-73
2024/02/20 09:53:00;;;;;;;34.17;6.93;;;9.20;91.00;;;;;;9173188;19;20015;-73
2024/02/20 09:56:07;;;;;;;46.97;6.28;;;9.20;90.80;;;;;;9175739;19;20015;-73
2024/02/20 09:59:15;;;;;;;50.10;8.50;;;9.20;91.00;;;;;;9174849;19;20029;-73
2024/02/20 10:02:28;;;;;;;44.42;6.35;;;9.30;90.90;;;;;;9175743;19;20018;-73
2024/02/20 10:05:38;;;;;;;45.53;7.22;;;9.30;90.90;;;;;;9174169;19;20018;-73
2024/02/20 10:08:44;;;;;;;40.13;6.53;;;9.40;90.80;;;;;;9171218;19;20694;-69
2024/02/20 10:11:53;;;;;;;38.25;6.85;;;9.40;91.10;;;;;;9174793;19;20018;-69
2024/02/20 10:15:07;;;;;;;37.65;7.35;;;9.70;91.00;;;;;;9171472;19;20030;-69
2024/02/20 10:18:20;;;;;;;36.83;6.43;;;9.50;90.80;;;;;;9173742;19;20022;-69
2024/02/20 10:21:26;;;;;;;28.38;7.50;;;9.70;90.90;;;;;;9181522;19;20048;-70
2024/02/20 10:24:33;;;;;;;42.63;7.53;;;9.60;90.90;;;;;;9182203;19;20037;-70
2024/02/20 10:27:43;;;;;;;36.38;7.85;;;9.70;90.90;;;;;;9178427;19;20391;-69
2024/02/20 10:30:51;;;;;;;40.40;8.32;;;9.70;90.90;;;;;;9178099;19;20010;-69
2024/02/20 10:33:59;;;;;;;39.67;6.80;;;9.80;90.90;;;;;;9181227;19;20057;-69
2024/02/20 10:37:19;;;;;;;37.38;6.78;;;9.70;91.00;;;;;;9182636;19;20131;-70
2024/02/20 10:40:25;;;;;;;35.58;7.40;;;9.80;90.90;;;;;;9177117;19;20015;-69
2024/02/20 10:43:36;;;;;;;37.47;8.00;;;9.80;90.70;;;;;;9181077;19;20015;-69
2024/02/20 10:46:42;;;;;;;36.72;6.85;;;9.90;90.90;;;;;;9178451;19;20018;-68
2024/02/20 10:49:55;;;;;;;38.55;7.75;;;9.80;91.10;;;;;;9181118;19;20014;-69
2024/02/20 10:53:03;;;;;;;36.05;7.43;;;9.80;90.70;;;;;;9178063;19;20560;-69
2024/02/20 10:56:12;;;;;;;34.85;7.43;;;10.00;90.90;;;;;;9181693;19;20033;-71
2024/02/20 10:59:20;;;;;;;28.20;7.22;;;9.90;91.00;;;;;;9179605;19;20030;-70
2024/02/20 11:02:31;;;;;;;35.05;7.55;;;10.00;90.70;;;;;;9177312;19;20830;-69
2024/02/20 11:05:39;;;;;;;51.88;9.88;;;10.00;90.70;;;;;;9180595;19;20026;-70
2024/02/20 11:08:47;;;;;;;36.75;6.53;;;10.00;90.60;;;;;;9178764;19;20021;-70
2024/02/20 11:11:52;;;;;;;43.30;7.63;;;10.10;90.70;;;;;;9181320;19;20026;-70
2024/02/20 11:15:08;;;;;;;39.42;8.90;;;10.10;90.80;;;;;;9180637;19;20019;-70
2024/02/20 11:18:18;;;;;;;43.03;8.20;;;10.20;90.80;;;;;;9180615;19;20010;-69
2024/02/20 11:21:30;;;;;;;42.03;8.48;;;10.30;90.90;;;;;;9177798;19;20036;-70
2024/02/20 11:24:37;;;;;;;44.10;8.35;;;10.30;90.80;;;;;;9179827;19;20055;-70
2024/02/20 11:27:45;;;;;;;34.35;8.55;;;10.30;90.80;;;;;;9174287;19;20484;-69
2024/02/20 11:30:51;;;;;;;46.45;9.18;;;10.40;90.60;;;;;;9176615;19;20018;-70
2024/02/20 11:34:00;;;;;;;40.33;7.53;;;10.40;90.70;;;;;;9177698;19;20019;-70
2024/02/20 11:37:11;;;;;;;29.65;7.38;;;10.50;90.70;;;;;;9179285;19;20017;-70
2024/02/20 11:40:30;;;;;;;39.28;8.93;;;10.60;90.70;;;;;;9178032;19;20408;-69
2024/02/20 11:43:35;;;;;;;45.35;8.63;;;10.60;90.60;;;;;;9180026;19;20101;-70
2024/02/20 11:46:44;;;;;;;42.88;10.43;;;10.60;90.60;;;;;;9177695;19;20021;-70
2024/02/20 11:49:50;;;;;;;44.90;8.50;;;10.70;90.60;;;;;;9178420;19;20010;-70
2024/02/20 11:53:05;;;;;;;44.15;8.50;;;10.70;90.60;;;;;;9178239;19;20495;-69
2024/02/20 11:56:11;;;;;;;42.70;8.27;;;10.70;90.60;;;;;;9177467;19;20377;-70
2024/02/20 11:59:19;;;;;;;36.83;7.05;;;10.80;90.50;;;;;;9178175;19;20046;-69
2024/02/20 12:02:24;;;;;;;42.03;7.07;;;10.80;90.50;;;;;;9178656;19;20022;-69
2024/02/20 12:05:37;;;;;;;29.75;6.88;;;10.80;90.40;;;;;;9174670;19;20023;-69
2024/02/20 12:08:46;;;;;;;38.47;7.22;;;10.80;90.40;;;;;;9174314;19;20098;-69
2024/02/20 12:11:54;;;;;;;32.53;7.50;;;10.90;90.50;;;;;;9179272;19;20089;-69
2024/02/20 12:15:01;;;;;;;37.05;5.82;;;10.90;90.50;;;;;;9178621;19;20011;-69
2024/02/20 12:18:09;;;;;;;34.10;6.47;;;11.00;90.50;;;;;;9177941;19;20022;-69
2024/02/20 12:21:15;;;;;;;45.05;7.35;;;10.90;90.40;;;;;;9174502;19;20051;-68
2024/02/20 12:24:27;;;;;;;35.83;6.82;;;11.00;90.30;;;;;;9178537;19;20021;-68
2024/02/20 12:27:32;;;;;;;32.75;6.28;;;11.00;90.40;;;;;;9172846;19;20018;-69
2024/02/20 12:30:40;;;;;;;45.88;6.82;;;11.00;90.30;;;;;;9177133;19;20027;-68
2024/02/20 12:33:46;;;;;;;34.05;6.75;;;11.00;90.20;;;;;;9177319;19;20030;-69
2024/02/20 12:36:54;;;;;;;33.33;6.35;;;11.10;90.20;;;;;;9176836;19;20015;-68
2024/02/20 12:40:04;;;;;;;48.38;7.35;;;11.10;90.20;;;;;;9176586;19;20007;-70
2024/02/20 12:43:13;;;;;;;41.58;6.25;;;11.10;90.30;;;;;;9176499;19;20010;-69
2024/02/20 12:46:19;;;;;;;25.10;5.30;;;11.20;90.30;;;;;;9176625;19;20013;-69
2024/02/20 12:49:27;;;;;;;45.50;6.18;;;11.10;90.20;;;;;;9177313;19;20369;-68
2024/02/20 12:52:32;;;;;;;37.75;7.60;;;11.20;90.20;;;;;;9175981;19;20037;-69
2024/02/20 12:55:42;;;;;;;35.38;6.43;;;11.20;90.10;;;;;;9175001;19;20011;-68
2024/02/20 12:58:48;;;;;;;34.55;6.13;;;11.20;90.00;;;;;;9176318;19;20021;-68
2024/02/20 13:01:56;;;;;;;31.65;5.85;;;11.20;90.00;;;;;;9172642;19;20021;-68
2024/02/20 13:05:02;;;;;;;26.92;6.28;;;11.30;90.00;;;;;;9174705;19;20514;-69
2024/02/20 13:08:11;;;;;;;42.85;6.47;;;11.30;90.10;;;;;;9166465;19;20012;-69
2024/02/20 13:11:19;;;;;;;33.72;5.90;;;11.30;90.20;;;;;;9176174;19;20021;-68
2024/02/20 13:14:26;;;;;;;34.50;6.57;;;11.40;90.20;;;;;;9174344;19;20018;-69
2024/02/20 13:17:32;;;;;;;32.28;5.60;;;11.40;90.10;;;;;;9175497;19;20026;-69
2024/02/20 13:20:42;;;;;;;32.63;6.28;;;11.40;90.10;;;;;;9174607;19;20015;-69
2024/02/20 13:23:48;;;;;;;40.33;8.30;;;11.40;90.10;;;;;;9172832;19;20019;-69
2024/02/20 13:26:58;;;;;;;33.72;6.55;;;11.50;90.00;;;;;;9174972;19;20018;-70
2024/02/20 13:30:13;;;;;;;31.00;5.88;;;11.60;90.10;;;;;;9174473;19;20018;-69
2024/02/20 13:33:20;;;;;;;36.03;6.97;;;11.50;90.00;;;;;;9167436;19;20018;-69
2024/02/20 13:36:27;;;;;;;35.67;6.95;;;11.60;90.00;;;;;;9174733;19;20082;-69
2024/02/20 13:39:34;;;;;;;23.88;5.28;;;11.70;89.90;;;;;;9171739;19;20013;-69
2024/02/20 13:42:43;;;;;;;27.85;5.80;;;11.80;89.70;;;;;;9172430;19;20015;-69
2024/02/20 13:45:54;;;;;;;26.63;6.28;;;11.80;89.80;;;;;;9174071;19;20014;-69
2024/02/20 13:49:02;;;;;;;32.45;5.47;;;11.80;90.00;;;;;;9173174;19;20018;-69
2024/02/20 13:52:10;;;;;;;27.65;5.43;;;11.70;89.30;;;;;;9175424;19;20017;-68
2024/02/20 13:55:15;;;;;;;24.95;6.03;;;11.90;89.70;;;;;;9170778;19;20033;-68
2024/02/20 13:58:26;;;;;;;32.67;5.60;;;11.90;90.10;;;;;;9174872;19;20011;-69
2024/02/20 14:01:32;;;;;;;40.22;5.53;;;11.90;89.40;;;;;;9174287;19;20029;-68
2024/02/20 14:04:39;;;;;;;33.63;5.45;;;11.90;89.20;;;;;;9175003;19;20495;-70
2024/02/20 14:07:45;;;;;;;32.55;6.30;;;12.00;89.20;;;;;;9168371;19;20022;-69
2024/02/20 14:10:53;;;;;;;24.50;4.80;;;11.90;89.10;;;;;;9170002;19;20010;-69
2024/02/20 14:14:01;;;;;;;26.17;5.45;;;12.00;89.00;;;;;;9174727;19;20029;-65
2024/02/20 14:17:10;;;;;;;25.77;6.57;;;12.00;89.20;;;;;;9174519;19;20010;-64
2024/02/20 14:20:16;;;;;;;29.10;8.75;;;12.00;88.70;;;;;;9174135;19;20019;-64
2024/02/20 14:23:26;;;;;;;29.25;4.75;;;12.00;89.00;;;;;;9171586;19;20029;-65
2024/02/20 14:26:31;;;;;;;22.70;4.72;;;12.10;88.40;;;;;;9171309;19;20017;-65
2024/02/20 14:29:41;;;;;;;22.73;4.25;;;12.10;88.30;;;;;;9170136;19;20017;-65
2024/02/20 14:32:47;;;;;;;39.30;5.63;;;12.10;88.40;;;;;;9169512;19;20442;-64
2024/02/20 14:35:55;;;;;;;31.30;5.22;;;12.10;88.20;;;;;;9174433;19;20006;-65
2024/02/20 14:39:01;;;;;;;38.22;7.40;;;12.10;88.10;;;;;;9171999;19;20030;-64
2024/02/20 14:42:09;;;;;;;37.33;6.35;;;12.00;88.30;;;;;;9167543;19;20013;-64
2024/02/20 14:45:17;;;;;;;23.92;4.80;;;12.00;88.20;;;;;;9168695;19;20014;-64
2024/02/20 14:48:24;;;;;;;29.70;4.68;;;12.00;87.90;;;;;;9171082;19;20025;-63
2024/02/20 14:51:30;;;;;;;26.45;5.80;;;12.10;88.20;;;;;;9170912;19;20624;-63
2024/02/20 14:54:38;;;;;;;29.52;5.10;;;12.00;87.40;;;;;;9169540;19;20070;-62
2024/02/20 14:57:47;;;;;;;35.65;6.38;;;12.10;87.40;;;;;;9166703;19;20034;-64
2024/02/20 15:00:58;;;;;;;28.33;6.20;;;12.00;87.50;;;;;;9166955;19;20018;-63
2024/02/20 15:04:03;;;;;;;33.30;5.75;;;12.00;87.30;;;;;;9168246;19;20022;-64
2024/02/20 15:07:14;;;;;;;31.17;5.70;;;12.00;87.50;;;;;;9167059;19;20017;-64
2024/02/20 15:10:20;;;;;;;29.30;6.53;;;11.90;87.40;;;;;;9172691;19;20421;-64
2024/02/20 15:13:28;;;;;;;25.48;5.80;;;12.00;87.30;;;;;;9173959;19;20358;-64
2024/02/20 15:16:37;;;;;;;27.30;5.30;;;11.90;87.30;;;;;;9176484;19;20022;-63
2024/02/20 15:19:48;;;;;;;29.60;5.20;;;11.90;87.00;;;;;;9178757;19;20026;-63
2024/02/20 15:22:54;;;;;;;34.60;6.57;;;11.90;87.10;;;;;;9176089;19;20023;-63
2024/02/20 15:26:06;;;;;;;31.02;5.78;;;12.00;87.30;;;;;;9178818;19;20022;-63
2024/02/20 15:29:11;;;;;;;35.40;5.63;;;11.90;87.20;;;;;;9175961;19;20021;-64
2024/02/20 15:32:21;;;;;;;30.27;6.25;;;11.90;87.10;;;;;;9176642;19;20038;-64
2024/02/20 15:35:28;;;;;;;28.40;5.13;;;11.90;87.30;;;;;;9178818;19;20385;-65
2024/02/20 15:38:36;;;;;;;39.03;6.28;;;11.90;87.10;;;;;;9178280;19;20037;-63
2024/02/20 15:41:44;;;;;;;33.13;6.03;;;11.90;87.00;;;;;;9177334;19;20015;-63
2024/02/20 15:44:51;;;;;;;37.55;6.65;;;11.90;87.20;;;;;;9178954;19;21060;-63
2024/02/20 15:47:59;;;;;;;31.45;6.03;;;11.90;86.90;;;;;;9177047;19;20020;-63
2024/02/20 15:51:09;;;;;;;33.35;6.95;;;11.90;87.00;;;;;;9177554;19;20706;-64
2024/02/20 15:54:15;;;;;;;33.38;6.88;;;11.80;86.90;;;;;;9176360;19;20650;-64
2024/02/20 15:57:22;;;;;;;29.20;5.93;;;11.90;87.10;;;;;;9178018;19;20388;-63
2024/02/20 16:00:28;;;;;;;29.05;6.90;;;11.80;86.70;;;;;;9175806;19;20352;-63
2024/02/20 16:03:38;;;;;;;32.08;6.47;;;11.90;87.20;;;;;;9174609;19;20019;-63
2024/02/20 16:06:44;;;;;;;36.90;7.40;;;11.80;86.80;;;;;;9171677;19;20014;-63
2024/02/20 16:09:57;;;;;;;26.55;5.47;;;11.90;87.00;;;;;;9176196;19;20014;-63
2024/02/20 16:13:03;;;;;;;33.42;6.80;;;11.90;86.70;;;;;;9179163;19;20022;-63